createdAt,value
2018-03-24T00:00:01.563Z,30.83
2018-03-24T00:02:27.740Z,26.37
2018-03-24T00:04:53.835Z,32.73
2018-03-24T00:07:20.746Z,25.43
2018-03-24T00:09:46.903Z,25.73
2018-03-24T00:12:13.028Z,20.93
2018-03-24T00:14:39.213Z,28.70
2018-03-24T00:17:09.357Z,31.60
2018-03-24T00:19:35.605Z,26.33
2018-03-24T00:22:01.718Z,27.13
2018-03-24T00:24:27.892Z,22.63
2018-03-24T00:26:54.758Z,31.50
2018-03-24T00:29:20.876Z,25.33
2018-03-24T00:31:47.968Z,24.80
2018-03-24T00:34:14.197Z,26.87
2018-03-24T00:36:40.317Z,25.20
2018-03-24T00:39:07.213Z,26.40
2018-03-24T00:41:33.371Z,30.13
2018-03-24T00:43:59.479Z,29.70
2018-03-24T00:46:25.596Z,25.73
2018-03-24T00:48:51.723Z,24.43
2018-03-24T00:51:18.630Z,28.73
2018-03-24T00:53:44.793Z,23.03
2018-03-24T00:56:10.966Z,23.83
2018-03-24T00:58:37.822Z,23.73
2018-03-24T01:01:04.695Z,29.90
2018-03-24T01:03:30.915Z,26.20
2018-03-24T01:05:57.779Z,28.40
2018-03-24T01:08:23.907Z,29.00
2018-03-24T01:10:50.030Z,25.37
2018-03-24T01:13:16.147Z,28.27
2018-03-24T01:15:42.295Z,32.43
2018-03-24T01:18:08.438Z,27.30
2018-03-24T01:20:34.549Z,30.00
2018-03-24T01:23:00.667Z,34.80
2018-03-24T01:25:26.807Z,23.97
2018-03-24T01:27:52.951Z,26.37
2018-03-24T01:30:19.057Z,28.33
2018-03-24T01:32:45.931Z,28.27
2018-03-24T01:35:12.051Z,30.37
2018-03-24T01:37:38.219Z,29.97
2018-03-24T01:40:04.419Z,31.67
2018-03-24T01:42:30.550Z,28.63
2018-03-24T01:44:56.715Z,33.50
2018-03-24T01:47:22.856Z,43.20
2018-03-24T01:49:49.779Z,35.53
2018-03-24T01:52:15.924Z,29.93
2018-03-24T01:54:42.040Z,35.00
2018-03-24T01:57:08.199Z,31.60
2018-03-24T01:59:34.302Z,36.13
2018-03-24T02:02:00.443Z,31.33
2018-03-24T02:04:26.543Z,39.37
2018-03-24T02:06:53.415Z,31.20
2018-03-24T02:09:19.522Z,37.80
2018-03-24T02:11:45.662Z,35.67
2018-03-24T02:14:11.766Z,38.23
2018-03-24T02:16:37.879Z,30.73
2018-03-24T02:19:03.992Z,36.20
2018-03-24T02:21:33.776Z,34.40
2018-03-24T02:23:59.887Z,41.37
2018-03-24T02:26:26.009Z,28.27
2018-03-24T02:28:52.129Z,39.60
2018-03-24T02:31:18.262Z,43.87
2018-03-24T02:33:45.141Z,37.30
2018-03-24T02:36:11.272Z,39.80
2018-03-24T02:38:37.402Z,42.60
2018-03-24T02:41:03.547Z,38.67
2018-03-24T02:43:30.420Z,44.23
2018-03-24T02:45:56.541Z,37.73
2018-03-24T02:48:23.466Z,44.50
2018-03-24T02:50:49.567Z,40.20
2018-03-24T02:53:15.739Z,42.90
2018-03-24T02:55:41.811Z,45.80
2018-03-24T02:58:07.960Z,51.70
2018-03-24T03:00:34.097Z,46.17
2018-03-24T03:03:00.956Z,51.77
2018-03-24T03:05:27.092Z,48.40
2018-03-24T03:07:53.194Z,42.60
2018-03-24T03:10:19.373Z,54.70
2018-03-24T03:12:45.488Z,48.63
2018-03-24T03:15:12.372Z,56.57
2018-03-24T03:17:38.482Z,47.67
2018-03-24T03:20:04.632Z,51.23
2018-03-24T03:22:31.515Z,42.83
2018-03-24T03:24:57.658Z,39.83
2018-03-24T03:27:23.754Z,45.07
2018-03-24T03:29:50.654Z,50.93
2018-03-24T03:32:17.620Z,47.10
2018-03-24T03:34:43.752Z,51.27
2018-03-24T03:37:09.891Z,42.60
2018-03-24T03:39:36.014Z,45.77
2018-03-24T03:42:02.177Z,43.00
2018-03-24T03:44:28.299Z,46.93
2018-03-24T03:46:54.426Z,49.20
2018-03-24T03:49:20.555Z,50.70
2018-03-24T03:51:46.710Z,47.40
2018-03-24T03:54:12.838Z,48.43
2018-03-24T03:56:38.946Z,44.73
2018-03-24T03:59:05.085Z,47.07
2018-03-24T04:01:31.194Z,41.40
2018-03-24T04:03:57.351Z,44.93
2018-03-24T04:06:23.458Z,51.87
2018-03-24T04:08:49.618Z,53.10
2018-03-24T04:11:15.752Z,43.47
2018-03-24T04:13:41.886Z,34.40
2018-03-24T04:16:08.028Z,41.67
2018-03-24T04:18:34.237Z,39.50
2018-03-24T04:21:00.423Z,47.93
2018-03-24T04:23:26.567Z,39.20
2018-03-24T04:25:52.720Z,44.27
2018-03-24T04:28:18.871Z,56.03
2018-03-24T04:30:44.978Z,44.60
2018-03-24T04:33:11.098Z,59.53
2018-03-24T04:35:37.286Z,41.37
2018-03-24T04:38:03.395Z,45.88
2018-03-24T04:40:29.572Z,52.50
2018-03-24T04:42:56.411Z,50.30
2018-03-24T04:45:22.521Z,45.20
2018-03-24T04:47:48.667Z,65.25
2018-03-24T04:50:14.840Z,55.13
2018-03-24T04:52:41.691Z,49.70
2018-03-24T04:55:07.844Z,46.70
2018-03-24T04:57:33.948Z,42.73
2018-03-24T05:00:00.085Z,44.00
2018-03-24T05:02:26.244Z,54.73
2018-03-24T05:04:52.367Z,51.40
2018-03-24T05:07:18.473Z,50.90
2018-03-24T05:09:44.642Z,49.00
2018-03-24T05:12:10.749Z,48.30
2018-03-24T05:14:36.851Z,46.20
2018-03-24T05:17:03.022Z,46.47
2018-03-24T05:19:29.884Z,55.10
2018-03-24T05:21:55.986Z,56.93
2018-03-24T05:24:22.911Z,44.73
2018-03-24T05:26:49.821Z,70.17
2018-03-24T05:29:15.949Z,47.20
2018-03-24T05:31:42.112Z,42.53
2018-03-24T05:34:08.359Z,42.37
2018-03-24T05:36:34.560Z,42.43
2018-03-24T05:39:00.744Z,47.37
2018-03-24T05:41:26.851Z,64.77
2018-03-24T05:43:52.975Z,53.30
2018-03-24T05:46:19.846Z,55.03
2018-03-24T05:48:46.013Z,55.27
2018-03-24T05:51:12.070Z,65.50
2018-03-24T05:53:38.166Z,59.07
2018-03-24T05:56:04.347Z,52.43
2018-03-24T05:58:30.505Z,58.47
2018-03-24T06:00:56.651Z,61.57
2018-03-24T06:03:23.603Z,51.70
2018-03-24T06:05:50.489Z,59.90
2018-03-24T06:08:16.677Z,53.67
2018-03-24T06:10:42.836Z,45.30
2018-03-24T06:13:08.988Z,50.97
2018-03-24T06:15:35.902Z,50.27
2018-03-24T06:18:02.029Z,46.67
2018-03-24T06:20:29.235Z,40.63
2018-03-24T06:22:55.368Z,44.93
2018-03-24T06:25:21.530Z,41.97
2018-03-24T06:27:48.377Z,47.40
2018-03-24T06:30:17.382Z,42.97
2018-03-24T06:32:43.531Z,46.53
2018-03-24T06:35:10.445Z,54.53
2018-03-24T06:37:36.572Z,48.87
2018-03-24T06:40:02.772Z,47.50
2018-03-24T06:42:28.882Z,49.13
2018-03-24T06:44:55.099Z,47.20
2018-03-24T06:47:21.903Z,42.43
2018-03-24T06:49:48.774Z,43.53
2018-03-24T06:52:14.902Z,42.63
2018-03-24T06:54:41.770Z,40.50
2018-03-24T06:57:07.915Z,52.67
2018-03-24T06:59:34.103Z,54.67
2018-03-24T07:02:00.215Z,60.43
2018-03-24T07:04:26.336Z,62.53
2018-03-24T07:06:52.520Z,52.57
2018-03-24T07:09:18.664Z,54.50
2018-03-24T07:11:44.890Z,53.83
2018-03-24T07:14:11.043Z,54.27
2018-03-24T07:16:37.263Z,53.67
2018-03-24T07:19:03.458Z,58.77
2018-03-24T07:21:30.345Z,54.83
2018-03-24T07:23:56.611Z,61.13
2018-03-24T07:26:22.716Z,56.70
2018-03-24T07:28:48.807Z,54.20
2018-03-24T07:31:14.991Z,55.00
2018-03-24T07:33:41.103Z,53.13
2018-03-24T07:36:08.043Z,55.27
2018-03-24T07:38:34.195Z,55.90
2018-03-24T07:41:00.357Z,61.40
2018-03-24T07:43:26.902Z,54.90
2018-03-24T07:45:53.220Z,60.57
2018-03-24T07:48:19.457Z,63.43
2018-03-24T07:50:45.724Z,61.87
2018-03-24T07:53:11.914Z,49.50
2018-03-24T07:55:45.647Z,52.17
2018-03-24T07:58:12.207Z,53.97
2018-03-24T08:00:38.498Z,56.80
2018-03-24T08:03:04.777Z,46.23
2018-03-24T08:05:31.728Z,52.07
2018-03-24T08:08:16.945Z,49.10
2018-03-24T08:10:46.083Z,49.13
2018-03-24T08:13:12.797Z,45.80
2018-03-24T08:15:39.114Z,47.77
2018-03-24T08:18:05.243Z,46.23
2018-03-24T08:20:31.407Z,43.37
2018-03-24T08:22:57.531Z,43.97
2018-03-24T08:25:23.702Z,50.37
2018-03-24T08:27:49.801Z,51.47
2018-03-24T08:30:15.920Z,40.20
2018-03-24T08:32:42.054Z,45.70
2018-03-24T08:35:09.451Z,37.97
2018-03-24T08:37:36.273Z,48.13
2018-03-24T08:40:03.144Z,40.20
2018-03-24T08:42:29.262Z,44.70
2018-03-24T08:44:55.371Z,42.27
2018-03-24T08:47:21.496Z,48.43
2018-03-24T08:49:47.700Z,47.33
2018-03-24T08:52:13.899Z,44.37
2018-03-24T08:54:40.757Z,42.00
2018-03-24T08:57:06.912Z,44.13
2018-03-24T08:59:33.036Z,45.60
2018-03-24T09:02:00.320Z,46.73
2018-03-24T09:04:26.582Z,40.10
2018-03-24T09:06:52.837Z,37.90
2018-03-24T09:09:19.741Z,37.87
2018-03-24T09:11:46.599Z,42.80
2018-03-24T09:14:13.512Z,40.30
2018-03-24T09:16:39.685Z,38.40
2018-03-24T09:19:08.099Z,34.83
2018-03-24T09:21:34.467Z,43.20
2018-03-24T09:24:01.721Z,36.43
2018-03-24T09:26:27.911Z,38.83
2018-03-24T09:28:54.091Z,45.40
2018-03-24T09:31:20.939Z,48.23
2018-03-24T09:33:47.808Z,45.90
2018-03-24T09:36:13.967Z,44.97
2018-03-24T09:38:40.144Z,40.73
2018-03-24T09:41:06.251Z,39.33
2018-03-24T09:43:32.420Z,39.77
2018-03-24T09:45:59.340Z,41.63
2018-03-24T09:48:25.497Z,41.60
2018-03-24T09:50:51.655Z,34.57
2018-03-24T09:53:17.756Z,42.73
2018-03-24T09:55:43.859Z,44.80
2018-03-24T09:58:10.743Z,38.67
2018-03-24T10:00:36.895Z,36.30
2018-03-24T10:03:03.160Z,32.43
2018-03-24T10:05:31.567Z,36.60
2018-03-24T10:07:57.663Z,38.17
2018-03-24T10:10:23.822Z,47.87
2018-03-24T10:12:49.952Z,30.93
2018-03-24T10:15:16.175Z,33.10
2018-03-24T10:17:42.308Z,30.23
2018-03-24T10:20:10.596Z,26.30
2018-03-24T10:22:49.054Z,23.73
2018-03-24T10:25:15.220Z,25.23
2018-03-24T10:27:41.351Z,26.00
2018-03-24T10:30:07.504Z,27.63
2018-03-24T10:32:33.693Z,28.07
2018-03-24T10:35:04.812Z,28.57
2018-03-24T10:37:32.503Z,27.43
2018-03-24T10:39:58.712Z,28.60
2018-03-24T10:42:25.922Z,21.93
2018-03-24T10:44:52.215Z,31.77
2018-03-24T10:47:18.462Z,27.13
2018-03-24T10:49:44.580Z,28.27
2018-03-24T10:52:11.161Z,22.37
2018-03-24T10:54:46.726Z,12.60
2018-03-24T10:57:12.906Z,15.60
2018-03-24T10:59:45.306Z,16.77
2018-03-24T11:02:14.823Z,14.67
2018-03-24T11:04:44.218Z,21.13
2018-03-24T11:07:14.376Z,15.37
2018-03-24T11:12:43.988Z,15.73
2018-03-24T11:15:10.212Z,17.23
2018-03-24T11:17:41.182Z,11.47
2018-03-24T11:20:07.396Z,14.97
2018-03-24T11:22:33.606Z,18.90
2018-03-24T11:24:59.806Z,21.10
2018-03-24T11:27:26.141Z,16.57
2018-03-24T11:29:56.453Z,17.67
2018-03-24T11:32:25.022Z,20.93
2018-03-24T11:34:53.593Z,22.40
2018-03-24T11:39:52.144Z,23.03
2018-03-24T12:03:44.426Z,27.10
2018-03-24T12:06:10.663Z,18.70
2018-03-24T12:08:36.805Z,24.90
2018-03-24T12:11:03.434Z,22.50
2018-03-24T12:25:33.322Z,18.00
2018-03-24T12:27:59.688Z,17.87
2018-03-24T12:30:26.093Z,21.93
2018-03-24T12:32:53.108Z,15.97
2018-03-24T12:35:19.420Z,21.00
2018-03-24T12:37:45.694Z,17.53
2018-03-24T12:40:11.953Z,19.10
2018-03-24T12:42:38.966Z,18.13
2018-03-24T12:45:05.510Z,15.80
2018-03-24T12:47:32.352Z,16.33
2018-03-24T12:49:58.650Z,16.63
2018-03-24T12:52:24.960Z,20.27
2018-03-24T12:54:51.307Z,18.37
2018-03-24T12:57:17.561Z,16.23
2018-03-24T12:59:43.855Z,21.27
2018-03-24T13:02:10.074Z,17.50
2018-03-24T13:04:36.460Z,17.93
2018-03-24T13:07:02.791Z,20.53
2018-03-24T13:09:29.081Z,19.17
2018-03-24T13:11:55.531Z,19.67
2018-03-24T13:14:21.848Z,16.47
2018-03-24T13:16:48.092Z,18.93
2018-03-24T13:19:14.415Z,14.33
2018-03-24T13:21:40.704Z,17.30
2018-03-24T13:24:06.997Z,19.00
2018-03-24T13:26:34.060Z,18.53
2018-03-24T13:29:00.343Z,17.63
2018-03-24T13:31:26.574Z,16.20
2018-03-24T13:33:52.905Z,18.03
2018-03-24T13:36:19.180Z,17.23
2018-03-24T13:38:45.473Z,20.90
2018-03-24T13:41:11.878Z,19.63
2018-03-24T13:43:38.323Z,17.37
2018-03-24T13:46:05.405Z,18.27
2018-03-24T13:48:31.797Z,21.07
2018-03-24T13:50:58.036Z,18.57
2018-03-24T13:53:24.282Z,18.57
2018-03-24T13:55:51.496Z,16.07
2018-03-24T13:58:18.581Z,16.73
2018-03-24T14:00:44.870Z,17.97
2018-03-24T14:03:11.191Z,26.17
2018-03-24T14:05:37.478Z,15.47
2018-03-24T14:08:04.019Z,18.20
2018-03-24T14:10:30.304Z,24.60
2018-03-24T14:12:56.558Z,13.10
2018-03-24T14:15:22.861Z,18.00
2018-03-24T14:17:49.194Z,17.67
2018-03-24T14:20:16.183Z,17.47
2018-03-24T14:22:42.757Z,17.53
2018-03-24T14:25:09.075Z,17.77
2018-03-24T14:27:35.276Z,19.67
2018-03-24T14:30:02.337Z,18.50
2018-03-24T14:32:28.599Z,20.50
2018-03-24T14:34:55.748Z,18.70
2018-03-24T14:37:22.011Z,23.63
2018-03-24T14:39:48.362Z,22.40
2018-03-24T14:42:14.674Z,20.60
2018-03-24T14:44:41.693Z,14.70
2018-03-24T14:47:07.976Z,19.93
2018-03-24T14:49:34.315Z,16.70
2018-03-24T14:52:00.675Z,31.23
2018-03-24T14:54:30.955Z,15.97
2018-03-24T14:56:59.497Z,18.63
2018-03-24T14:59:25.899Z,19.43
2018-03-24T15:01:52.213Z,18.40
2018-03-24T15:04:18.516Z,20.43
2018-03-24T15:06:44.849Z,20.77
2018-03-24T15:09:12.969Z,19.47
2018-03-24T15:11:40.071Z,19.90
2018-03-24T15:14:06.530Z,23.93
2018-03-24T15:16:32.903Z,22.20
2018-03-24T15:19:00.036Z,18.70
2018-03-24T15:21:26.406Z,16.93
2018-03-24T15:23:54.558Z,28.77
2018-03-24T15:26:21.120Z,19.97
2018-03-24T15:28:59.651Z,16.63
2018-03-24T15:31:37.984Z,19.57
2018-03-24T19:46:18.429Z,23.70
2018-03-24T19:48:44.555Z,31.93
2018-03-24T19:51:10.684Z,22.20
2018-03-24T19:53:37.575Z,21.20
2018-03-24T19:56:03.737Z,24.17
2018-03-24T19:58:29.967Z,22.47
2018-03-24T20:00:56.119Z,25.97
2018-03-24T20:03:22.292Z,15.90
2018-03-24T20:05:48.374Z,24.10
2018-03-24T20:08:14.573Z,20.97
2018-03-24T20:10:43.153Z,23.53
2018-03-24T20:13:09.407Z,22.67
2018-03-24T20:15:35.595Z,31.23
2018-03-24T20:18:01.703Z,24.20
2018-03-24T20:20:27.818Z,31.93
2018-03-24T20:22:53.947Z,32.00
2018-03-24T20:25:20.087Z,28.60
2018-03-24T20:27:46.329Z,23.90
2018-03-24T20:30:13.207Z,36.50
2018-03-24T20:32:39.360Z,60.77
2018-03-24T20:38:08.982Z,65.47
2018-03-24T20:40:38.290Z,67.07
2018-03-24T20:43:04.602Z,63.43
2018-03-24T20:45:31.085Z,64.57
2018-03-24T20:47:57.488Z,69.70
2018-03-24T20:50:23.895Z,63.13
2018-03-24T20:52:50.338Z,75.70
2018-03-24T20:55:17.007Z,76.63
2018-03-24T20:57:44.838Z,62.67
2018-03-24T21:00:18.035Z,46.10
2018-03-24T21:02:44.325Z,45.17
2018-03-24T21:05:10.684Z,43.63
2018-03-24T21:07:37.091Z,37.57
2018-03-24T21:10:03.410Z,37.63
2018-03-24T21:12:29.815Z,37.90
2018-03-24T21:14:56.139Z,38.43
2018-03-24T21:17:22.531Z,31.17
2018-03-24T21:19:48.730Z,33.73
2018-03-24T21:22:15.023Z,25.30
2018-03-24T21:24:41.461Z,32.93
2018-03-24T21:27:07.787Z,35.83
2018-03-24T21:29:34.127Z,34.03
2018-03-24T21:32:01.507Z,42.97
2018-03-24T21:34:27.794Z,39.07
2018-03-24T21:36:54.397Z,26.10
2018-03-24T21:39:20.682Z,37.07
2018-03-24T21:41:47.059Z,34.10
2018-03-24T21:44:16.320Z,34.03
2018-03-24T21:46:42.825Z,29.70
2018-03-24T21:49:15.790Z,34.67
2018-03-24T21:51:42.131Z,31.90
2018-03-24T21:54:09.458Z,32.33
2018-03-24T21:56:35.904Z,30.00
2018-03-24T22:02:06.134Z,38.13
2018-03-24T22:04:33.068Z,32.97
2018-03-24T22:06:59.233Z,40.37
2018-03-24T22:09:25.471Z,40.57
2018-03-24T22:14:29.322Z,30.17
2018-03-24T22:16:56.278Z,37.57
2018-03-24T22:19:22.395Z,39.67
2018-03-24T22:21:48.664Z,40.03
2018-03-24T22:24:23.207Z,33.30
2018-03-24T22:26:49.955Z,42.67
2018-03-24T22:29:16.870Z,44.50
2018-03-24T22:31:43.203Z,39.13
2018-03-24T22:34:14.936Z,44.53
2018-03-24T22:36:44.216Z,48.77
2018-03-24T22:39:15.260Z,34.27
2018-03-24T22:41:43.140Z,36.23
2018-03-24T22:44:10.202Z,39.17
2018-03-24T22:46:36.413Z,37.57
2018-03-24T22:49:03.817Z,38.30
2018-03-24T22:51:30.035Z,35.50
2018-03-24T22:53:56.282Z,30.53
2018-03-24T22:56:22.425Z,28.47
2018-03-24T22:58:48.641Z,40.40
2018-03-24T23:01:19.853Z,31.00
2018-03-24T23:03:46.776Z,37.37
2018-03-24T23:06:13.021Z,30.30
2018-03-24T23:08:43.949Z,35.93
2018-03-24T23:11:13.866Z,35.47
2018-03-24T23:13:40.219Z,38.03
2018-03-24T23:16:06.494Z,30.43
2018-03-24T23:18:32.666Z,32.47
2018-03-24T23:20:59.752Z,33.80
2018-03-24T23:23:28.459Z,31.57
2018-03-24T23:25:58.116Z,33.83
2018-03-24T23:28:24.508Z,38.70
2018-03-24T23:30:57.341Z,31.43
2018-03-24T23:33:23.803Z,32.50
2018-03-24T23:35:49.953Z,31.10
2018-03-24T23:38:16.898Z,37.67
2018-03-24T23:40:45.073Z,35.23
2018-03-24T23:43:11.700Z,34.97
2018-03-24T23:45:37.886Z,38.33
2018-03-24T23:48:05.873Z,32.77
2018-03-24T23:50:32.280Z,32.00
2018-03-24T23:53:02.825Z,34.90
2018-03-24T23:55:40.452Z,34.67
2018-03-24T23:58:06.853Z,27.33
